Time;durP1;ratioP1;P1;durP2;ratioP2;P2;SDS_P1;SDS_P2;PMS_P1;PMS_P2;Temp;Humidity;BMP_temperature;BMP_pressure;BME280_temperature;BME280_humidity;BME280_pressure;Samples;Min_cycle;Max_cycle;Signal;HPM_P1;HPM_P2
2024/04/17 00:00:56;;;;;;;2.83;0.80;;;;;;;21.16;32.88;101114.19;4567618;25;20041;-63
2024/04/17 00:02:58;;;;;;;;;;;;;;;21.18;32.70;101122.09;4554982;26;20012;-63
2024/04/17 00:04:59;;;;;;;4.07;0.88;;;;;;;21.15;33.38;101119.66;4572360;26;19933;-62
2024/04/17 00:07:01;;;;;;;2.67;0.77;;;;;;;21.15;32.58;101119.66;4552964;26;20010;-62
2024/04/17 00:09:03;;;;;;;3.83;1.00;;;;;;;21.19;33.26;101124.69;4568024;26;20001;-62
2024/04/17 00:11:05;;;;;;;3.08;1.00;;;;;;;21.16;33.21;101130.25;4569526;25;20335;-62
2024/04/17 00:13:07;;;;;;;;;;;;;;;21.17;33.48;101125.78;4552113;25;20001;-63
2024/04/17 00:15:09;;;;;;;3.45;1.15;;;;;;;21.01;32.65;101113.53;4572296;26;19923;-63
2024/04/17 00:17:11;;;;;;;;;;;;;;;21.14;32.79;101126.00;4556696;26;20002;-63
2024/04/17 00:19:13;;;;;;;4.00;0.82;;;;;;;21.12;33.28;101126.09;4565343;26;20262;-62
2024/04/17 00:21:14;;;;;;;3.20;0.95;;;;;;;21.10;32.90;101120.00;4569007;25;20006;-63
2024/04/17 00:23:19;;;;;;;;;;;;;;;21.15;33.09;101122.34;4578483;25;20020;-62
2024/04/17 00:25:21;;;;;;;2.95;0.80;;;;;;;21.12;33.60;101115.41;4572361;26;19991;-62
2024/04/17 00:27:23;;;;;;;2.60;0.85;;;;;;;21.14;33.60;101115.28;4557893;26;20412;-63
2024/04/17 00:29:27;;;;;;;2.67;0.80;;;;;;;21.15;33.35;101122.34;4563784;26;20343;-64
2024/04/17 00:31:29;;;;;;;2.35;0.90;;;;;;;21.14;32.99;101120.63;4564887;25;20002;-63
2024/04/17 00:33:31;;;;;;;4.07;0.90;;;;;;;21.16;33.38;101122.22;4561924;26;20014;-63
2024/04/17 00:35:33;;;;;;;;;;;;;;;21.18;33.26;101119.44;4542076;26;20089;-63
2024/04/17 00:37:35;;;;;;;3.08;1.00;;;;;;;21.13;32.91;101124.28;4552795;26;19931;-64
2024/04/17 00:39:37;;;;;;;4.68;1.08;;;;;;;21.13;33.23;101121.59;4552736;25;20043;-63
2024/04/17 00:41:39;;;;;;;3.20;0.85;;;;;;;21.14;33.03;101117.97;4541135;26;20002;-64
2024/04/17 00:43:40;;;;;;;3.15;0.75;;;;;;;21.19;33.43;101129.16;4562855;25;20020;-64
2024/04/17 00:45:43;;;;;;;;;;;;;;;21.18;33.57;101132.81;4540976;26;20074;-64
2024/04/17 00:47:46;;;;;;;4.53;1.20;;;;;;;21.10;33.42;101122.69;4550069;26;19961;-64
2024/04/17 00:49:48;;;;;;;2.20;0.80;;;;;;;21.15;33.04;101117.84;4554734;25;20030;-64
2024/04/17 00:51:51;;;;;;;4.00;0.95;;;;;;;21.18;32.97;101111.41;4541954;26;20371;-61
2024/04/17 00:53:53;;;;;;;2.30;0.70;;;;;;;21.18;33.58;101114.94;4564231;26;20005;-63
2024/04/17 00:55:56;;;;;;;3.38;0.75;;;;;;;21.19;33.56;101114.00;4541631;26;20014;-63
2024/04/17 00:58:01;;;;;;;3.40;0.93;;;;;;;21.17;33.63;101107.88;4547984;26;20013;-64
2024/04/17 01:00:04;;;;;;;2.80;0.70;;;;;;;21.20;33.05;101113.03;4556233;25;20006;-63
2024/04/17 01:02:05;;;;;;;3.60;0.70;;;;;;;21.16;33.59;101106.19;4541400;26;20078;-63
2024/04/17 01:04:07;;;;;;;2.50;0.80;;;;;;;21.16;33.34;101100.81;4562301;26;20009;-63
2024/04/17 01:06:09;;;;;;;;;;;;;;;21.19;32.77;101105.09;4542721;25;20013;-63
2024/04/17 01:08:14;;;;;;;2.25;0.63;;;;;;;21.17;33.00;101105.22;4545957;26;19923;-62
2024/04/17 01:10:16;;;;;;;3.25;0.90;;;;;;;21.17;33.41;101097.19;4558214;25;20511;-62
2024/04/17 01:12:18;;;;;;;3.97;0.80;;;;;;;21.17;33.14;101096.34;4541267;26;20002;-63
2024/04/17 01:14:20;;;;;;;2.92;0.73;;;;;;;21.14;33.10;101086.75;4560742;26;20013;-63
2024/04/17 01:16:22;;;;;;;2.67;0.70;;;;;;;21.13;33.66;101081.47;4543679;25;20002;-63
2024/04/17 01:18:24;;;;;;;;;;;;;;;21.19;33.64;101095.25;4544418;26;20002;-63
2024/04/17 01:20:26;;;;;;;3.35;0.90;;;;;;;21.11;33.65;101083.44;4560069;26;19931;-63
2024/04/17 01:22:28;;;;;;;2.58;0.70;;;;;;;21.16;33.45;101086.63;4556887;25;20119;-63
2024/04/17 01:24:30;;;;;;;2.70;0.90;;;;;;;21.15;32.98;101083.06;4567371;25;20014;-64
2024/04/17 01:26:32;;;;;;;4.20;0.80;;;;;;;21.14;32.82;101078.72;4546508;25;20006;-63
2024/04/17 01:28:34;;;;;;;3.05;0.80;;;;;;;21.19;33.54;101086.38;4543156;26;20017;-63
2024/04/17 01:30:39;;;;;;;2.55;0.80;;;;;;;21.18;33.20;101080.19;4561559;26;20002;-63
2024/04/17 01:32:42;;;;;;;3.10;0.90;;;;;;;21.16;33.35;101090.13;4540857;26;20385;-64
2024/04/17 01:34:47;;;;;;;2.90;0.70;;;;;;;21.05;33.48;101072.22;4555694;26;20041;-63
2024/04/17 01:36:49;;;;;;;2.63;0.70;;;;;;;21.19;32.77;101087.25;4547264;25;20351;-64
2024/04/17 01:38:51;;;;;;;3.42;0.82;;;;;;;21.16;32.86;101081.25;4543116;26;20005;-62
2024/04/17 01:40:54;;;;;;;3.08;0.80;;;;;;;21.04;33.64;101054.44;4561360;26;20297;-63
2024/04/17 01:42:56;;;;;;;3.13;0.90;;;;;;;21.18;33.07;101076.63;4540831;26;20003;-64
2024/04/17 01:44:58;;;;;;;3.63;0.90;;;;;;;21.17;33.14;101075.78;4554147;26;20006;-63
2024/04/17 01:47:00;;;;;;;3.13;0.90;;;;;;;21.13;32.90;101068.97;4549675;26;20006;-63
2024/04/17 01:49:01;;;;;;;;;;;;;;;21.17;33.37;101074.94;4542880;26;20021;-63
2024/04/17 01:51:03;;;;;;;3.45;0.80;;;;;;;21.10;33.47;101063.00;4561130;26;19935;-63
2024/04/17 01:53:06;;;;;;;3.97;1.00;;;;;;;21.10;33.47;101060.34;4540701;26;20014;-63
2024/04/17 01:55:08;;;;;;;3.65;1.00;;;;;;;21.11;33.69;101062.03;4551090;26;20020;-63
2024/04/17 01:57:09;;;;;;;;;;;;;;;21.16;32.84;101071.41;4556325;25;20013;-64
2024/04/17 01:59:11;;;;;;;2.50;0.77;;;;;;;21.14;33.13;101065.34;4547575;26;19923;-64
2024/04/17 02:01:13;;;;;;;2.83;0.90;;;;;;;21.10;33.57;101061.16;4568496;26;20451;-63
2024/04/17 02:03:15;;;;;;;;;;;;;;;21.14;32.88;101073.38;4547098;26;20359;-63
2024/04/17 02:05:17;;;;;;;2.92;0.70;;;;;;;21.14;33.11;101073.38;4553136;26;19930;-64
2024/04/17 02:07:18;;;;;;;3.10;0.80;;;;;;;21.15;33.60;101077.72;4561856;26;20078;-64
2024/04/17 02:09:23;;;;;;;;;;;;;;;21.05;33.74;101058.84;4547608;26;20324;-63
2024/04/17 02:11:25;;;;;;;2.08;0.70;;;;;;;21.13;33.21;101082.34;4569540;26;19995;-64
2024/04/17 02:13:27;;;;;;;2.95;0.80;;;;;;;21.12;33.63;101083.31;4575886;26;20012;-64
2024/04/17 02:15:30;;;;;;;;;;;;;;;21.15;32.94;101087.56;4552746;26;20002;-63
2024/04/17 02:17:32;;;;;;;3.80;1.00;;;;;;;21.13;33.75;101092.19;4562632;25;19936;-63
2024/04/17 02:19:35;;;;;;;2.83;0.90;;;;;;;21.10;33.69;101079.06;4547026;26;20014;-63
2024/04/17 02:21:36;;;;;;;3.58;1.10;;;;;;;21.13;33.68;101087.69;4566495;26;20073;-63
2024/04/17 02:23:38;;;;;;;4.28;1.00;;;;;;;21.15;33.01;101087.56;4601134;25;20001;-64
2024/04/17 02:25:40;;;;;;;2.95;0.88;;;;;;;21.13;33.39;101085.03;4588933;25;20471;-63
2024/04/17 02:27:45;;;;;;;3.08;0.90;;;;;;;21.15;33.11;101088.41;4565841;25;20005;-63
2024/04/17 02:29:47;;;;;;;2.90;0.82;;;;;;;21.02;33.12;101067.09;4544698;26;20074;-63
2024/04/17 02:31:49;;;;;;;3.10;0.93;;;;;;;21.12;33.67;101085.13;4564207;26;20042;-63
2024/04/17 02:33:51;;;;;;;;;;;;;;;21.16;32.90;101089.28;4551272;25;20074;-63
2024/04/17 02:35:52;;;;;;;3.10;0.80;;;;;;;21.12;33.42;101090.47;4549067;26;19924;-64
2024/04/17 02:37:54;;;;;;;;;;;;;;;21.16;33.26;101094.63;4567271;26;20047;-63
2024/04/17 02:39:56;;;;;;;3.25;0.88;;;;;;;21.08;32.93;101083.66;4546446;26;19923;-64
2024/04/17 02:41:58;;;;;;;2.92;0.85;;;;;;;21.09;33.42;101085.38;4561550;26;20001;-63
2024/04/17 02:43:59;;;;;;;3.13;0.98;;;;;;;21.10;33.51;101087.91;4553686;26;20002;-63
2024/04/17 02:46:01;;;;;;;;;;;;;;;21.15;33.43;101092.94;4549021;26;20014;-63
2024/04/17 02:48:03;;;;;;;2.83;0.88;;;;;;;21.10;33.28;101101.28;4566929;26;19931;-63
2024/04/17 02:50:05;;;;;;;2.40;0.88;;;;;;;21.11;33.68;101088.78;4546063;26;20038;-63
2024/04/17 02:52:07;;;;;;;;;;;;;;;21.15;33.54;101098.28;4559064;26;20339;-63
2024/04/17 02:54:09;;;;;;;2.80;0.90;;;;;;;21.10;33.30;101095.94;4556777;26;19931;-63
2024/04/17 02:56:10;;;;;;;3.92;0.75;;;;;;;21.12;33.80;101096.69;4548255;26;20002;-63
2024/04/17 02:58:14;;;;;;;2.50;0.80;;;;;;;21.13;32.89;101106.41;4566633;26;20418;-63
2024/04/17 03:00:17;;;;;;;3.22;0.70;;;;;;;21.10;33.73;101100.44;4545515;26;20002;-63
2024/04/17 03:02:19;;;;;;;4.43;0.90;;;;;;;21.12;33.54;101101.16;4555782;26;20006;-62
2024/04/17 03:04:21;;;;;;;3.00;0.80;;;;;;;21.10;33.36;101095.94;4558436;26;20666;-62
2024/04/17 03:06:26;;;;;;;;;;;;;;;21.13;33.73;101097.53;4546715;26;20458;-63
2024/04/17 03:08:28;;;;;;;3.58;0.90;;;;;;;21.04;33.37;101094.56;4548902;26;20397;-62
2024/04/17 03:10:30;;;;;;;3.55;0.70;;;;;;;21.07;32.94;101096.19;4573220;26;20339;-62
2024/04/17 03:12:32;;;;;;;;;;;;;;;21.12;33.80;101107.38;4564921;25;20486;-63
2024/04/17 03:14:34;;;;;;;2.33;0.77;;;;;;;21.01;33.76;101080.56;4558057;26;19924;-64
2024/04/17 03:16:38;;;;;;;3.33;0.95;;;;;;;21.13;33.42;101097.53;4573020;25;20074;-63
2024/04/17 03:18:40;;;;;;;;;;;;;;;21.12;33.49;101103.84;4550547;26;19999;-63
2024/04/17 03:20:42;;;;;;;3.15;0.93;;;;;;;21.05;33.78;101098.09;4542817;26;19923;-63
2024/04/17 03:22:44;;;;;;;3.17;0.82;;;;;;;21.10;33.11;101103.97;4553207;25;20020;-61
2024/04/17 03:24:46;;;;;;;2.70;0.70;;;;;;;21.09;33.48;101107.59;4556093;26;20433;-63
2024/04/17 03:26:48;;;;;;;2.40;0.70;;;;;;;21.12;33.18;101104.72;4573188;25;20084;-64
2024/04/17 03:28:49;;;;;;;2.67;0.80;;;;;;;21.10;33.48;101105.78;4552612;25;20002;-63
2024/04/17 03:30:52;;;;;;;2.20;0.68;;;;;;;21.10;33.37;101105.78;4568014;26;20098;-63
2024/04/17 03:32:54;;;;;;;1.83;0.65;;;;;;;21.09;33.26;101107.59;4569263;25;20002;-63
2024/04/17 03:34:56;;;;;;;2.20;0.60;;;;;;;21.10;33.67;101105.78;4551412;26;20013;-64
2024/04/17 03:36:58;;;;;;;2.88;0.90;;;;;;;21.06;33.00;101100.66;4572984;25;20097;-63
2024/04/17 03:39:00;;;;;;;3.10;0.80;;;;;;;21.11;33.34;101110.19;4555122;25;20002;-63
2024/04/17 03:41:02;;;;;;;;;;;;;;;21.12;33.69;101112.72;4566030;26;20470;-64
2024/04/17 03:43:04;;;;;;;2.33;0.80;;;;;;;21.10;33.53;101111.16;4570066;25;19931;-64
2024/04/17 03:45:05;;;;;;;;;;;;;;;21.09;33.00;101115.63;4552091;25;20001;-64
2024/04/17 03:47:07;;;;;;;2.33;0.70;;;;;;;21.06;33.12;101118.53;4572672;26;19964;-63
2024/04/17 03:49:09;;;;;;;;;;;;;;;21.07;33.54;101117.56;4558436;25;20070;-64
2024/04/17 03:51:11;;;;;;;1.63;0.50;;;;;;;21.03;33.27;101116.06;4564447;26;19924;-63
2024/04/17 03:53:12;;;;;;;;;;;;;;;21.07;33.81;101120.25;4570653;26;20094;-63
2024/04/17 03:55:14;;;;;;;2.65;0.70;;;;;;;21.05;33.48;101125.69;4551872;26;19931;-63
2024/04/17 03:57:16;;;;;;;2.58;0.70;;;;;;;21.04;33.09;101125.81;4572433;25;20455;-64
2024/04/17 03:59:18;;;;;;;4.95;0.90;;;;;;;21.07;33.33;101130.94;4560504;26;20083;-62
2024/04/17 04:01:20;;;;;;;;;;;;;;;21.08;32.92;101132.63;4561590;26;20077;-62
2024/04/17 04:03:22;;;;;;;3.22;0.80;;;;;;;21.05;33.65;101132.88;4570786;26;19931;-63
2024/04/17 04:05:24;;;;;;;1.75;0.60;;;;;;;21.05;33.43;101130.19;4551158;26;20075;-64
2024/04/17 04:07:26;;;;;;;2.92;0.60;;;;;;;21.06;32.87;101130.06;4572565;25;20020;-63
2024/04/17 04:09:28;;;;;;;3.40;0.70;;;;;;;21.05;33.63;101131.03;4563296;26;20014;-64
2024/04/17 04:11:30;;;;;;;2.45;0.68;;;;;;;21.09;33.03;101136.19;4556901;26;20042;-63
2024/04/17 04:13:32;;;;;;;;;;;;;;;21.09;33.51;101136.19;4572513;25;20020;-62
2024/04/17 04:15:34;;;;;;;2.90;0.80;;;;;;;21.04;33.17;101137.34;4547326;26;19931;-63
2024/04/17 04:17:36;;;;;;;;;;;;;;;21.06;33.17;101131.91;4542433;26;20002;-63
2024/04/17 04:19:38;;;;;;;1.85;0.80;;;;;;;21.02;33.51;101138.44;4548920;26;19923;-63
2024/04/17 04:21:40;;;;;;;1.85;0.60;;;;;;;21.04;33.45;101137.34;4555682;26;20408;-64
2024/04/17 04:23:42;;;;;;;3.05;0.77;;;;;;;21.04;33.18;101139.19;4599458;25;20016;-63
2024/04/17 04:25:44;;;;;;;3.42;0.80;;;;;;;21.05;33.02;101151.59;4567119;25;20002;-64
2024/04/17 04:27:46;;;;;;;1.67;0.70;;;;;;;21.07;33.41;101147.00;4541808;26;20002;-64
2024/04/17 04:29:47;;;;;;;2.28;0.70;;;;;;;21.03;32.99;101141.00;4544635;26;20006;-64
2024/04/17 04:31:49;;;;;;;3.15;0.70;;;;;;;21.04;33.57;101152.56;4556135;26;20364;-64
2024/04/17 04:33:51;;;;;;;3.45;0.70;;;;;;;21.02;33.03;101141.09;4541597;26;20016;-62
2024/04/17 04:35:56;;;;;;;2.88;0.80;;;;;;;21.02;33.07;101136.63;4558707;26;20013;-62
2024/04/17 04:37:58;;;;;;;3.58;0.60;;;;;;;21.06;33.29;101147.97;4544692;26;20003;-61
2024/04/17 04:40:00;;;;;;;1.85;0.55;;;;;;;21.03;33.44;101137.47;4543760;26;20002;-62
2024/04/17 04:42:03;;;;;;;2.72;0.70;;;;;;;21.02;33.18;101131.28;4561666;26;20034;-64
2024/04/17 04:44:05;;;;;;;2.30;0.70;;;;;;;21.03;33.34;101134.78;4541499;26;20396;-62
2024/04/17 04:46:07;;;;;;;;;;;;;;;21.06;33.63;101138.09;4557132;26;20455;-63
2024/04/17 04:48:08;;;;;;;3.15;1.00;;;;;;;20.97;33.62;101127.22;4548915;26;19927;-62
2024/04/17 04:50:12;;;;;;;3.75;0.85;;;;;;;20.99;33.49;101136.00;4543639;26;20037;-62
2024/04/17 04:52:14;;;;;;;1.48;0.57;;;;;;;20.99;32.83;101136.84;4562201;26;20033;-63
2024/04/17 04:54:15;;;;;;;2.10;0.73;;;;;;;21.03;33.22;101151.72;4541720;26;20009;-63
2024/04/17 04:56:18;;;;;;;3.55;0.80;;;;;;;21.05;33.32;101148.91;4553637;26;20518;-62
2024/04/17 04:58:19;;;;;;;2.45;0.60;;;;;;;21.03;33.05;101149.03;4551067;25;20010;-62
2024/04/17 05:00:21;;;;;;;2.22;0.70;;;;;;;21.04;33.44;101147.19;4543715;26;20014;-62
2024/04/17 05:02:23;;;;;;;1.88;0.65;;;;;;;21.01;33.17;101150.09;4561886;26;20008;-62
2024/04/17 05:04:25;;;;;;;5.13;0.90;;;;;;;21.01;33.51;101148.28;4541336;26;20002;-62
2024/04/17 05:06:27;;;;;;;;;;;;;;;21.03;33.27;101148.16;4551651;26;19997;-62
2024/04/17 05:08:28;;;;;;;3.10;0.80;;;;;;;20.98;33.22;101151.16;4554009;26;19924;-62
2024/04/17 05:10:30;;;;;;;2.10;0.70;;;;;;;20.99;33.03;101147.53;4541568;26;20532;-63
2024/04/17 05:12:32;;;;;;;;;;;;;;;21.00;33.25;101151.91;4549035;26;20016;-63
2024/04/17 05:14:34;;;;;;;2.13;0.70;;;;;;;20.99;33.23;101154.72;4571823;26;19995;-63
2024/04/17 05:16:36;;;;;;;1.98;0.70;;;;;;;20.96;32.97;101150.44;4562841;26;20012;-63
2024/04/17 05:18:38;;;;;;;2.92;0.82;;;;;;;20.96;33.29;101155.81;4556148;26;20347;-63
2024/04/17 05:20:39;;;;;;;;;;;;;;;21.00;33.79;101167.13;4572268;25;20001;-63
2024/04/17 05:22:41;;;;;;;1.95;0.75;;;;;;;20.98;33.31;101169.03;4572766;25;19923;-63
2024/04/17 05:24:45;;;;;;;3.25;0.85;;;;;;;20.96;33.71;101166.50;4573201;25;20002;-63
2024/04/17 05:26:47;;;;;;;2.83;0.65;;;;;;;20.95;33.28;101162.09;4565981;26;20020;-63
2024/04/17 05:28:49;;;;;;;3.08;0.80;;;;;;;20.99;33.20;101165.41;4553684;26;20016;-63
2024/04/17 05:30:58;;;;;;;2.47;0.68;;;;;;;21.00;33.27;101170.63;4570535;25;20534;-63
2024/04/17 05:32:59;;;;;;;3.10;0.68;;;;;;;20.99;33.91;101168.94;4561063;26;20010;-63
2024/04/17 05:35:04;;;;;;;3.40;0.80;;;;;;;20.99;33.14;101160.91;4543213;25;20400;-63
2024/04/17 05:37:06;;;;;;;2.13;0.65;;;;;;;20.98;33.01;101172.56;4544913;26;20013;-62
2024/04/17 05:39:08;;;;;;;3.38;0.90;;;;;;;20.98;32.88;101169.88;4557668;26;20425;-62
2024/04/17 05:41:10;;;;;;;;;;;;;;;21.00;33.07;101172.47;4541370;26;20017;-62
2024/04/17 05:43:14;;;;;;;3.40;0.70;;;;;;;20.99;33.29;101166.25;4558965;26;19923;-62
2024/04/17 05:45:16;;;;;;;2.00;0.70;;;;;;;20.98;33.15;101159.19;4544286;25;20444;-63
2024/04/17 05:47:18;;;;;;;2.17;0.70;;;;;;;20.96;33.31;101166.50;4543365;26;20013;-63
2024/04/17 05:49:20;;;;;;;;;;;;;;;20.99;33.55;101166.25;4561492;25;20017;-63
2024/04/17 05:51:21;;;;;;;2.38;0.70;;;;;;;20.93;33.58;101160.50;4540898;26;19923;-63
2024/04/17 05:53:24;;;;;;;2.03;0.73;;;;;;;20.95;33.24;101164.78;4556391;26;20304;-62
2024/04/17 05:55:26;;;;;;;2.65;0.70;;;;;;;20.96;34.01;101157.59;4546499;25;20006;-63
2024/04/17 05:57:28;;;;;;;2.35;0.65;;;;;;;20.98;33.36;101158.34;4543071;26;20009;-63
2024/04/17 05:59:33;;;;;;;2.67;0.80;;;;;;;20.98;33.13;101163.69;4560841;26;20002;-62
2024/04/17 06:01:34;;;;;;;;;;;;;;;20.98;33.87;101175.22;4541342;26;20002;-62
2024/04/17 06:03:36;;;;;;;2.00;0.70;;;;;;;20.90;34.08;101165.09;4554325;26;19931;-62
2024/04/17 06:05:38;;;;;;;;;;;;;;;20.95;33.97;101163.91;4549797;25;20006;-62
2024/04/17 06:07:40;;;;;;;2.60;0.80;;;;;;;20.95;33.55;101174.59;4542664;26;20337;-62
2024/04/17 06:09:42;;;;;;;3.83;0.90;;;;;;;20.92;33.28;101173.00;4560759;26;20001;-62
2024/04/17 06:11:44;;;;;;;2.40;0.80;;;;;;;20.77;33.67;101147.38;4540403;26;20512;-62
2024/04/17 06:13:46;;;;;;;1.77;0.60;;;;;;;20.93;33.25;101173.88;4551595;26;20001;-62
2024/04/17 06:15:49;;;;;;;3.80;0.80;;;;;;;20.96;33.67;101173.66;4551398;25;20003;-62
2024/04/17 06:17:50;;;;;;;1.50;0.68;;;;;;;20.98;33.35;101175.22;4541562;26;20285;-62
2024/04/17 06:19:52;;;;;;;;;;;;;;;20.97;33.25;101176.19;4561774;26;20001;-62
2024/04/17 06:21:54;;;;;;;1.85;0.55;;;;;;;20.94;34.12;101175.59;4540274;26;19923;-62
2024/04/17 06:23:56;;;;;;;3.17;0.80;;;;;;;20.94;33.47;101178.28;4576242;25;20415;-62
2024/04/17 06:25:58;;;;;;;;;;;;;;;20.94;33.86;101178.28;4554748;25;20018;-62
2024/04/17 06:28:00;;;;;;;1.80;0.57;;;;;;;20.87;34.10;101175.16;4539964;26;19924;-63
2024/04/17 06:30:02;;;;;;;2.63;0.70;;;;;;;20.92;34.05;101173.00;4562366;26;20008;-62
2024/04/17 06:32:04;;;;;;;2.03;0.57;;;;;;;20.95;33.36;101178.16;4540212;26;20002;-62
2024/04/17 06:34:06;;;;;;;3.13;0.80;;;;;;;20.93;33.36;101176.56;4547694;26;20002;-62
2024/04/17 06:36:08;;;;;;;1.95;0.50;;;;;;;20.94;33.86;101176.44;4553711;26;20349;-62
2024/04/17 06:38:10;;;;;;;2.03;0.73;;;;;;;20.96;33.19;101177.19;4570358;25;20008;-62
2024/04/17 06:40:12;;;;;;;2.92;0.70;;;;;;;20.92;33.68;101170.34;4550144;25;20013;-62
2024/04/17 06:42:14;;;;;;;2.90;0.80;;;;;;;20.95;33.17;101180.81;4567568;26;20751;-62
2024/04/17 06:44:16;;;;;;;;;;;;;;;20.97;33.43;101188.72;4570015;25;19998;-62
2024/04/17 06:46:17;;;;;;;3.13;0.60;;;;;;;20.96;33.87;101187.88;4554207;26;19923;-63
2024/04/17 06:48:20;;;;;;;3.25;0.75;;;;;;;20.94;33.30;101188.97;4572206;26;20020;-63
2024/04/17 06:50:26;;;;;;;3.45;0.77;;;;;;;20.94;33.88;101187.13;4554704;25;19998;-61
2024/04/17 06:52:28;;;;;;;;;;;;;;;20.97;33.43;101188.72;4569053;26;20016;-61
2024/04/17 06:54:30;;;;;;;3.35;0.60;;;;;;;20.94;33.42;101189.81;4570672;26;19928;-61
2024/04/17 06:56:32;;;;;;;1.55;0.50;;;;;;;20.94;33.40;101189.81;4552424;26;20002;-61
2024/04/17 06:58:33;;;;;;;;;;;;;;;20.98;33.93;101195.78;4574034;26;20038;-61
2024/04/17 07:00:36;;;;;;;2.95;0.75;;;;;;;20.95;33.70;101196.00;4557697;26;19924;-62
2024/04/17 07:02:38;;;;;;;2.72;0.63;;;;;;;20.98;33.56;101198.47;4566217;26;20356;-63
2024/04/17 07:04:52;;;;;;;2.50;0.70;;;;;;;20.88;33.37;101174.22;4570368;25;20380;-63
2024/04/17 07:06:54;;;;;;;2.30;0.70;;;;;;;21.00;33.59;101196.53;4552084;25;20005;-63
2024/04/17 07:08:55;;;;;;;3.28;0.85;;;;;;;21.00;33.21;101194.72;4573151;25;20002;-64
2024/04/17 07:10:57;;;;;;;2.53;0.80;;;;;;;20.98;33.25;101193.13;4557115;25;20355;-64
2024/04/17 07:13:00;;;;;;;2.63;0.70;;;;;;;20.99;33.49;101187.66;4566251;26;20013;-63
2024/04/17 07:15:02;;;;;;;2.55;0.60;;;;;;;21.00;33.45;101192.03;4570444;25;20010;-63
2024/04/17 07:17:04;;;;;;;;;;;;;;;21.03;33.75;101199.84;4551254;26;20078;-63
2024/04/17 07:19:06;;;;;;;1.75;0.40;;;;;;;20.99;33.52;101193.00;4573610;26;19924;-63
2024/04/17 07:21:09;;;;;;;3.10;0.60;;;;;;;21.06;33.42;101188.06;4557559;26;20006;-63
2024/04/17 07:23:11;;;;;;;2.03;0.70;;;;;;;20.99;33.74;101184.13;4582772;25;20001;-63
2024/04/17 07:25:16;;;;;;;2.28;0.65;;;;;;;21.03;33.75;101196.31;4597760;25;20037;-63
2024/04/17 07:27:19;;;;;;;2.00;0.52;;;;;;;21.00;33.42;101186.69;4563061;26;20002;-64
2024/04/17 07:29:21;;;;;;;1.80;0.60;;;;;;;20.99;33.46;101187.66;4542520;26;20013;-64
2024/04/17 07:31:23;;;;;;;2.80;0.70;;;;;;;21.02;33.57;101197.25;4552250;26;20001;-64
2024/04/17 07:33:25;;;;;;;;;;;;;;;21.03;33.37;101188.28;4554103;25;20049;-63
2024/04/17 07:35:27;;;;;;;2.67;0.70;;;;;;;20.97;33.93;101186.88;4543979;26;20307;-63
2024/04/17 07:37:30;;;;;;;2.83;0.73;;;;;;;21.04;33.52;101188.16;4562873;26;20520;-62
2024/04/17 07:39:32;;;;;;;2.45;0.57;;;;;;;21.08;33.70;101191.47;4542421;26;20002;-63
2024/04/17 07:41:34;;;;;;;2.35;0.63;;;;;;;21.09;32.88;101187.00;4551446;26;20474;-63
2024/04/17 07:43:35;;;;;;;;;;;;;;;21.09;33.24;101185.16;4556192;25;20410;-62
2024/04/17 07:45:37;;;;;;;2.70;0.70;;;;;;;21.09;33.20;101185.16;4542471;26;19936;-63
2024/04/17 07:47:40;;;;;;;3.10;0.77;;;;;;;21.10;32.91;101183.34;4565260;26;20002;-63
2024/04/17 07:49:42;;;;;;;2.65;0.70;;;;;;;21.08;32.74;101186.13;4540749;26;20002;-63
2024/04/17 07:51:44;;;;;;;2.92;0.70;;;;;;;21.08;32.64;101182.59;4548258;26;20018;-62
2024/04/17 07:53:45;;;;;;;;;;;;;;;21.10;33.32;101186.03;4558444;25;20456;-62
2024/04/17 07:55:47;;;;;;;2.60;0.65;;;;;;;21.08;33.01;101175.41;4542309;26;19955;-63
2024/04/17 07:57:52;;;;;;;3.22;0.60;;;;;;;21.08;33.33;101183.44;4562619;26;20041;-63
2024/04/17 07:59:54;;;;;;;3.22;0.90;;;;;;;21.13;33.27;101186.66;4541835;26;20010;-62
2024/04/17 08:01:58;;;;;;;3.72;0.70;;;;;;;21.08;32.67;101183.44;4546633;26;20010;-63
2024/04/17 08:04:00;;;;;;;;;;;;;;;21.14;33.14;101185.69;4560678;25;20075;-63
2024/04/17 08:06:02;;;;;;;3.35;0.80;;;;;;;21.07;33.32;101176.41;4541828;26;19935;-62
2024/04/17 08:08:04;;;;;;;;;;;;;;;21.14;32.90;101183.03;4560999;26;20324;-63
2024/04/17 08:10:06;;;;;;;3.75;0.90;;;;;;;21.02;33.07;101162.50;4552321;25;20322;-63
2024/04/17 08:12:08;;;;;;;;;;;;;;;21.12;33.34;101176.94;4570034;25;20026;-62
2024/04/17 08:14:10;;;;;;;3.47;0.82;;;;;;;21.14;32.93;101179.47;4551443;25;19923;-62
2024/04/17 08:16:11;;;;;;;3.53;0.70;;;;;;;21.17;32.65;101174.75;4572495;25;20012;-63
2024/04/17 08:18:13;;;;;;;2.38;0.65;;;;;;;21.16;32.27;101166.84;4560820;26;20001;-63
2024/04/17 08:20:16;;;;;;;;;;;;;;;21.19;32.44;101174.63;4552718;26;20010;-63
2024/04/17 08:22:18;;;;;;;3.50;0.68;;;;;;;21.14;32.41;101168.78;4563514;25;19961;-65
2024/04/17 08:24:20;;;;;;;;;;;;;;;21.20;32.52;101177.22;4551786;25;20001;-65
2024/04/17 08:26:22;;;;;;;4.97;1.20;;;;;;;21.16;32.16;101177.56;4560951;25;20006;-63
2024/04/17 08:28:24;;;;;;;;;;;;;;;21.19;31.69;101177.31;4555581;26;20014;-62
2024/04/17 08:30:27;;;;;;;5.13;1.25;;;;;;;21.20;31.61;101168.31;4553952;26;19936;-64
2024/04/17 08:32:29;;;;;;;4.82;1.20;;;;;;;21.21;32.00;101167.38;4568924;25;20001;-62
2024/04/17 08:34:30;;;;;;;2.65;0.90;;;;;;;21.22;31.69;101177.94;4566238;26;20005;-63
2024/04/17 08:36:33;;;;;;;5.18;1.15;;;;;;;21.21;31.76;101170.03;4571703;26;20005;-63
2024/04/17 08:38:34;;;;;;;4.47;0.90;;;;;;;21.18;31.36;101160.44;4570930;25;20016;-63
2024/04/17 08:40:36;;;;;;;;;;;;;;;21.21;31.10;101170.88;4553351;25;19998;-62
2024/04/17 08:42:41;;;;;;;5.80;1.27;;;;;;;21.21;31.89;101178.91;4541825;26;20406;-64
2024/04/17 08:44:43;;;;;;;5.15;1.15;;;;;;;21.21;31.55;101172.72;4564053;25;19998;-64
2024/04/17 08:46:46;;;;;;;10.43;1.25;;;;;;;21.25;31.23;101174.19;4568745;25;20001;-63
2024/04/17 08:48:48;;;;;;;6.65;1.05;;;;;;;21.22;31.29;101159.22;4563063;25;20001;-62
2024/04/17 08:50:52;;;;;;;7.72;1.25;;;;;;;21.26;30.87;101167.03;4560368;26;20054;-63
2024/04/17 08:52:55;;;;;;;5.75;0.93;;;;;;;21.25;30.75;101160.81;4571169;25;20017;-64
2024/04/17 08:54:58;;;;;;;4.47;0.90;;;;;;;21.22;30.61;101156.53;4559995;26;20005;-63
2024/04/17 08:57:01;;;;;;;5.55;0.80;;;;;;;21.28;30.47;101159.75;4569464;25;20005;-62
2024/04/17 08:59:03;;;;;;;6.45;0.90;;;;;;;21.22;30.83;101159.22;4563533;25;20010;-63
2024/04/17 09:01:06;;;;;;;;;;;;;;;21.24;30.92;101153.78;4556127;26;20428;-63
2024/04/17 09:03:10;;;;;;;6.07;1.52;;;;;;;21.21;31.16;101154.00;4571373;25;20361;-63
2024/04/17 09:05:15;;;;;;;3.72;0.93;;;;;;;21.19;30.44;101148.75;4563047;25;20002;-63
2024/04/17 09:07:18;;;;;;;20.92;3.95;;;;;;;21.22;30.60;101151.19;4540380;26;20006;-63
2024/04/17 09:09:23;;;;;;;52.35;15.70;;;;;;;21.22;30.95;101151.19;4548127;26;20137;-63
2024/04/17 09:11:27;;;;;;;50.15;12.63;;;;;;;21.18;30.82;101147.03;4556097;25;20440;-61
2024/04/17 09:13:29;;;;;;;45.60;13.52;;;;;;;21.19;29.99;101142.53;4563300;26;20037;-62
2024/04/17 09:15:31;;;;;;;;;;;;;;;21.24;30.32;101153.78;4563563;25;20009;-62
2024/04/17 09:17:33;;;;;;;27.98;8.98;;;;;;;21.21;30.44;101148.63;4540606;25;19924;-62
2024/04/17 09:19:35;;;;;;;;;;;;;;;21.19;30.17;101148.75;4554411;26;20467;-63
2024/04/17 09:21:39;;;;;;;17.65;4.82;;;;;;;21.18;30.56;101143.50;4570964;26;19974;-62
2024/04/17 09:23:41;;;;;;;15.25;3.92;;;;;;;21.14;30.62;101132.22;4597658;25;20346;-60
2024/04/17 09:25:45;;;;;;;8.68;2.60;;;;;;;21.21;29.51;101140.63;4562343;25;20005;-61
2024/04/17 09:27:46;;;;;;;;;;;;;;;21.23;29.38;101144.03;4569554;26;20238;-61
2024/04/17 09:29:48;;;;;;;11.90;2.15;;;;;;;21.15;30.10;101138.41;4564578;25;19947;-63
2024/04/17 09:31:53;;;;;;;7.07;2.00;;;;;;;21.14;30.08;101142.91;4555358;26;20001;-62
2024/04/17 09:33:59;;;;;;;8.13;1.58;;;;;;;21.16;29.94;101148.13;4571095;25;19997;-63
2024/04/17 09:36:01;;;;;;;6.38;1.42;;;;;;;21.07;29.36;101130.94;4561454;25;20452;-61
2024/04/17 09:38:15;;;;;;;4.78;1.20;;;;;;;21.20;29.65;101137.09;4569803;25;20016;-62